createdAt,value
2018-12-01T00:00:09.337Z,95603.00
2018-12-01T00:00:47.089Z,95602.00
2018-12-01T00:01:24.559Z,95599.00
2018-12-01T00:02:02.276Z,95599.00
2018-12-01T00:02:40.152Z,95604.00
2018-12-01T00:03:17.968Z,95604.00
2018-12-01T00:03:55.583Z,95603.00
2018-12-01T00:04:33.341Z,95606.00
2018-12-01T00:05:10.976Z,95605.00
2018-12-01T00:05:48.810Z,95605.00
2018-12-01T00:06:26.920Z,95602.00
2018-12-01T00:07:04.803Z,95605.00
2018-12-01T00:07:42.669Z,95602.00
2018-12-01T00:08:20.411Z,95605.00
2018-12-01T00:08:58.281Z,95608.00
2018-12-01T00:09:35.920Z,95609.00
2018-12-01T00:10:13.954Z,95604.00
2018-12-01T00:10:51.763Z,95607.00
2018-12-01T00:11:29.549Z,95609.00
2018-12-01T00:12:07.187Z,95602.00
2018-12-01T00:12:44.916Z,95607.00
2018-12-01T00:13:22.724Z,95606.00
2018-12-01T00:14:00.872Z,95611.00
2018-12-01T00:14:38.685Z,95609.00
2018-12-01T00:15:16.109Z,95604.00
2018-12-01T00:15:53.666Z,95605.00
2018-12-01T00:16:31.738Z,95607.00
2018-12-01T00:17:09.286Z,95611.00
2018-12-01T00:17:47.075Z,95605.00
2018-12-01T00:18:24.592Z,95605.00
2018-12-01T00:19:02.309Z,95607.00
2018-12-01T00:19:40.017Z,95610.00
2018-12-01T00:20:17.818Z,95605.00
2018-12-01T00:20:55.518Z,95607.00
2018-12-01T00:21:33.232Z,95612.00
2018-12-01T00:22:10.889Z,95607.00
2018-12-01T00:22:48.441Z,95607.00
2018-12-01T00:23:25.860Z,95604.00
2018-12-01T00:24:03.710Z,95604.00
2018-12-01T00:24:41.655Z,95603.00
2018-12-01T00:25:19.577Z,95606.00
2018-12-01T00:25:57.399Z,95603.00
2018-12-01T00:26:35.390Z,95604.00
2018-12-01T00:27:13.044Z,95606.00
2018-12-01T00:27:51.154Z,95603.00
2018-12-01T00:28:29.149Z,95605.00
2018-12-01T00:29:07.885Z,95606.00
2018-12-01T00:29:45.599Z,95603.00
2018-12-01T00:30:23.623Z,95603.00
2018-12-01T00:31:01.356Z,95609.00
2018-12-01T00:31:39.016Z,95605.00
2018-12-01T00:32:16.799Z,95603.00
2018-12-01T00:32:55.115Z,95604.00
2018-12-01T00:33:32.865Z,95608.00
2018-12-01T00:34:10.642Z,95601.00
2018-12-01T00:34:48.452Z,95599.00
2018-12-01T00:35:26.138Z,95601.00
2018-12-01T00:36:03.903Z,95604.00
2018-12-01T00:36:41.867Z,95606.00
2018-12-01T00:37:19.697Z,95606.00
2018-12-01T00:37:57.398Z,95608.00
2018-12-01T00:38:34.984Z,95612.00
2018-12-01T00:39:12.482Z,95608.00
2018-12-01T00:39:50.377Z,95611.00
2018-12-01T00:40:27.953Z,95608.00
2018-12-01T00:41:05.631Z,95609.00
2018-12-01T00:41:43.598Z,95612.00
2018-12-01T00:42:21.479Z,95612.00
2018-12-01T00:42:59.173Z,95611.00
2018-12-01T00:43:36.952Z,95610.00
2018-12-01T00:44:14.813Z,95613.00
2018-12-01T00:44:52.513Z,95613.00
2018-12-01T00:45:30.049Z,95613.00
2018-12-01T00:46:08.556Z,95614.00
2018-12-01T00:46:46.351Z,95611.00
2018-12-01T00:47:24.039Z,95616.00
2018-12-01T00:48:01.841Z,95618.00
2018-12-01T00:48:39.595Z,95614.00
2018-12-01T00:49:17.394Z,95617.00
2018-12-01T00:49:55.395Z,95615.00
2018-12-01T00:50:33.307Z,95617.00
2018-12-01T00:51:11.119Z,95622.00
2018-12-01T00:51:48.742Z,95621.00
2018-12-01T00:52:26.532Z,95622.00
2018-12-01T00:53:04.557Z,95623.00
2018-12-01T00:53:43.886Z,95625.00
2018-12-01T00:54:21.872Z,95630.00
2018-12-01T00:54:59.545Z,95630.00
2018-12-01T00:55:37.183Z,95630.00
2018-12-01T00:56:15.244Z,95627.00
2018-12-01T00:56:52.952Z,95626.00
2018-12-01T00:57:30.654Z,95629.00
2018-12-01T00:58:08.424Z,95631.00
2018-12-01T00:58:46.189Z,95629.00
2018-12-01T00:59:24.073Z,95626.00
2018-12-01T01:00:01.646Z,95632.00
2018-12-01T01:00:39.483Z,95632.00
2018-12-01T01:01:17.207Z,95629.00
2018-12-01T01:01:55.185Z,95630.00
2018-12-01T01:02:32.835Z,95631.00
2018-12-01T01:03:10.772Z,95632.00
2018-12-01T01:03:48.444Z,95633.00
2018-12-01T01:04:26.674Z,95630.00
2018-12-01T01:05:04.654Z,95634.00
2018-12-01T01:05:42.225Z,95636.00
2018-12-01T01:06:20.265Z,95634.00
2018-12-01T01:06:58.058Z,95638.00
2018-12-01T01:07:36.094Z,95638.00
2018-12-01T01:08:13.884Z,95640.00
2018-12-01T01:08:51.707Z,95636.00
2018-12-01T01:09:29.603Z,95643.00
2018-12-01T01:10:07.549Z,95640.00
2018-12-01T01:10:45.224Z,95644.00
2018-12-01T01:11:23.124Z,95641.00
2018-12-01T01:12:01.626Z,95640.00
2018-12-01T01:12:39.198Z,95638.00
2018-12-01T01:13:16.881Z,95642.00
2018-12-01T01:13:54.383Z,95643.00
2018-12-01T01:14:32.052Z,95640.00
2018-12-01T01:15:09.776Z,95644.00
2018-12-01T01:15:47.393Z,95644.00
2018-12-01T01:16:25.061Z,95648.00
2018-12-01T01:17:02.767Z,95642.00
2018-12-01T01:17:40.686Z,95649.00
2018-12-01T01:18:18.676Z,95651.00
2018-12-01T01:18:56.636Z,95651.00
2018-12-01T01:19:34.467Z,95652.00
2018-12-01T01:20:12.187Z,95652.00
2018-12-01T01:20:50.037Z,95657.00
2018-12-01T01:21:27.776Z,95652.00
2018-12-01T01:22:05.420Z,95654.00
2018-12-01T01:22:43.369Z,95653.00
2018-12-01T01:23:21.240Z,95655.00
2018-12-01T01:23:58.818Z,95656.00
2018-12-01T01:24:36.384Z,95659.00
2018-12-01T01:25:14.258Z,95657.00
2018-12-01T01:25:51.827Z,95657.00
2018-12-01T01:26:29.527Z,95660.00
2018-12-01T01:27:07.495Z,95657.00
2018-12-01T01:27:45.186Z,95659.00
2018-12-01T01:28:22.981Z,95659.00
2018-12-01T01:29:00.516Z,95660.00
2018-12-01T01:29:38.197Z,95661.00
2018-12-01T01:30:15.909Z,95662.00
2018-12-01T01:30:53.877Z,95664.00
2018-12-01T01:31:31.569Z,95661.00
2018-12-01T01:32:09.472Z,95658.00
2018-12-01T01:32:47.334Z,95661.00
2018-12-01T01:33:25.070Z,95657.00
2018-12-01T01:34:03.075Z,95661.00
2018-12-01T01:34:41.147Z,95661.00
2018-12-01T01:35:18.899Z,95663.00
2018-12-01T01:35:56.808Z,95662.00
2018-12-01T01:36:34.641Z,95665.00
2018-12-01T01:37:12.581Z,95664.00
2018-12-01T01:37:50.359Z,95665.00
2018-12-01T01:38:27.953Z,95663.00
2018-12-01T01:39:05.668Z,95662.00
2018-12-01T01:39:44.130Z,95662.00
2018-12-01T01:40:21.868Z,95663.00
2018-12-01T01:40:59.518Z,95665.00
2018-12-01T01:41:37.273Z,95662.00
2018-12-01T01:42:14.749Z,95665.00
2018-12-01T01:42:52.742Z,95666.00
2018-12-01T01:43:30.450Z,95667.00
2018-12-01T01:44:08.400Z,95665.00
2018-12-01T01:44:46.243Z,95670.00
2018-12-01T01:45:24.103Z,95663.00
2018-12-01T01:46:02.239Z,95667.00
2018-12-01T01:46:40.598Z,95668.00
2018-12-01T01:47:18.578Z,95671.00
2018-12-01T01:47:56.188Z,95668.00
2018-12-01T01:48:34.194Z,95671.00
2018-12-01T01:49:12.149Z,95668.00
2018-12-01T01:49:50.053Z,95663.00
2018-12-01T01:50:27.857Z,95663.00
2018-12-01T01:51:05.700Z,95666.00
2018-12-01T01:51:43.326Z,95665.00
2018-12-01T01:52:20.886Z,95665.00
2018-12-01T01:52:58.792Z,95670.00
2018-12-01T01:53:36.581Z,95672.00
2018-12-01T01:54:14.265Z,95668.00
2018-12-01T01:54:52.160Z,95666.00
2018-12-01T01:55:30.297Z,95666.00
2018-12-01T01:56:07.993Z,95663.00
2018-12-01T01:56:46.742Z,95665.00
2018-12-01T01:57:24.621Z,95667.00
2018-12-01T01:58:02.371Z,95666.00
2018-12-01T01:58:40.113Z,95662.00
2018-12-01T01:59:17.942Z,95663.00
2018-12-01T01:59:55.737Z,95662.00
2018-12-01T02:00:33.418Z,95664.00
2018-12-01T02:01:11.206Z,95665.00
2018-12-01T02:01:48.765Z,95664.00
2018-12-01T02:02:26.573Z,95664.00
2018-12-01T02:03:04.448Z,95659.00
2018-12-01T02:03:42.272Z,95661.00
2018-12-01T02:04:20.045Z,95657.00
2018-12-01T02:04:57.751Z,95664.00
2018-12-01T02:05:35.287Z,95660.00
2018-12-01T02:06:13.202Z,95668.00
2018-12-01T02:06:50.901Z,95674.00
2018-12-01T02:08:07.912Z,95669.00
2018-12-01T02:08:45.885Z,95672.00
2018-12-01T02:09:23.561Z,95672.00
2018-12-01T02:10:01.332Z,95671.00
2018-12-01T02:10:39.144Z,95673.00
2018-12-01T02:11:16.687Z,95670.00
2018-12-01T02:11:54.434Z,95669.00
2018-12-01T02:12:32.060Z,95668.00
2018-12-01T02:13:09.885Z,95664.00
2018-12-01T02:13:47.432Z,95670.00
2018-12-01T02:14:25.663Z,95666.00
2018-12-01T02:15:03.254Z,95666.00
2018-12-01T02:15:41.183Z,95667.00
2018-12-01T02:16:19.161Z,95669.00
2018-12-01T02:16:56.967Z,95668.00
2018-12-01T02:17:34.465Z,95668.00
2018-12-01T02:18:12.144Z,95669.00
2018-12-01T02:18:50.167Z,95658.00
2018-12-01T02:19:27.952Z,95661.00
2018-12-01T02:20:05.795Z,95665.00
2018-12-01T02:20:43.453Z,95663.00
2018-12-01T02:21:21.286Z,95661.00
2018-12-01T02:21:59.151Z,95662.00
2018-12-01T02:22:37.385Z,95664.00
2018-12-01T02:23:15.195Z,95660.00
2018-12-01T02:23:53.225Z,95660.00
2018-12-01T02:24:30.947Z,95661.00
2018-12-01T02:25:08.843Z,95664.00
2018-12-01T02:25:46.788Z,95667.00
2018-12-01T02:26:24.471Z,95668.00
2018-12-01T02:27:02.289Z,95661.00
2018-12-01T02:27:40.174Z,95666.00
2018-12-01T02:28:18.045Z,95661.00
2018-12-01T02:28:55.844Z,95664.00
2018-12-01T02:29:33.576Z,95661.00
2018-12-01T02:30:11.329Z,95660.00
2018-12-01T02:30:49.023Z,95661.00
2018-12-01T02:31:26.973Z,95656.00
2018-12-01T02:32:04.665Z,95657.00
2018-12-01T02:32:42.437Z,95665.00
2018-12-01T02:33:20.153Z,95659.00
2018-12-01T02:33:58.026Z,95653.00
2018-12-01T02:34:36.722Z,95660.00
2018-12-01T02:35:14.482Z,95661.00
2018-12-01T02:35:52.211Z,95663.00
2018-12-01T02:36:29.957Z,95664.00
2018-12-01T02:37:07.711Z,95659.00
2018-12-01T02:37:45.840Z,95661.00
2018-12-01T02:38:23.588Z,95657.00
2018-12-01T02:39:01.725Z,95664.00
2018-12-01T02:39:40.053Z,95658.00
2018-12-01T02:40:17.626Z,95660.00
2018-12-01T02:40:55.485Z,95660.00
2018-12-01T02:41:33.348Z,95661.00
2018-12-01T02:42:11.308Z,95664.00
2018-12-01T02:42:48.893Z,95666.00
2018-12-01T02:43:26.915Z,95663.00
2018-12-01T02:44:04.847Z,95661.00
2018-12-01T02:44:42.708Z,95661.00
2018-12-01T02:45:20.527Z,95663.00
2018-12-01T02:45:58.199Z,95656.00
2018-12-01T02:46:36.099Z,95659.00
2018-12-01T02:47:14.080Z,95659.00
2018-12-01T02:47:51.580Z,95658.00
2018-12-01T02:48:29.212Z,95660.00
2018-12-01T02:49:07.195Z,95656.00
2018-12-01T02:49:44.935Z,95657.00
2018-12-01T02:50:22.576Z,95663.00
2018-12-01T02:51:00.559Z,95658.00
2018-12-01T02:51:38.239Z,95662.00
2018-12-01T02:52:16.138Z,95660.00
2018-12-01T02:52:54.094Z,95658.00
2018-12-01T02:53:31.863Z,95661.00
2018-12-01T02:54:09.829Z,95661.00
2018-12-01T02:54:47.848Z,95663.00
2018-12-01T02:55:25.608Z,95661.00
2018-12-01T02:56:03.493Z,95658.00
2018-12-01T02:56:41.291Z,95657.00
2018-12-01T02:57:19.026Z,95656.00
2018-12-01T02:57:56.502Z,95659.00
2018-12-01T02:58:34.569Z,95660.00
2018-12-01T02:59:12.708Z,95661.00
2018-12-01T02:59:50.588Z,95658.00
2018-12-01T03:00:28.351Z,95666.00
2018-12-01T03:01:06.268Z,95664.00
2018-12-01T03:01:44.389Z,95662.00
2018-12-01T03:02:22.413Z,95663.00
2018-12-01T03:03:00.404Z,95663.00
2018-12-01T03:03:38.202Z,95665.00
2018-12-01T03:04:16.117Z,95665.00
2018-12-01T03:04:54.079Z,95664.00
2018-12-01T03:05:31.839Z,95670.00
2018-12-01T03:06:09.620Z,95667.00
2018-12-01T03:06:47.484Z,95662.00
2018-12-01T03:07:25.643Z,95666.00
2018-12-01T03:08:03.624Z,95668.00
2018-12-01T03:08:41.183Z,95665.00
2018-12-01T03:09:19.072Z,95663.00
2018-12-01T03:09:56.610Z,95666.00
2018-12-01T03:10:34.558Z,95667.00
2018-12-01T03:11:12.292Z,95660.00
2018-12-01T03:11:50.199Z,95666.00
2018-12-01T03:12:28.127Z,95667.00
2018-12-01T03:13:06.185Z,95662.00
2018-12-01T03:13:43.637Z,95665.00
2018-12-01T03:14:21.442Z,95668.00
2018-12-01T03:14:59.032Z,95663.00
2018-12-01T03:15:36.519Z,95666.00
2018-12-01T03:16:14.429Z,95665.00
2018-12-01T03:16:52.188Z,95664.00
2018-12-01T03:17:29.980Z,95669.00
2018-12-01T03:18:07.587Z,95668.00
2018-12-01T03:18:45.277Z,95668.00
2018-12-01T03:19:23.278Z,95667.00
2018-12-01T03:20:00.877Z,95668.00
2018-12-01T03:20:38.589Z,95667.00
2018-12-01T03:21:16.222Z,95670.00
2018-12-01T03:21:53.857Z,95669.00
2018-12-01T03:22:31.531Z,95668.00
2018-12-01T03:23:09.396Z,95664.00
2018-12-01T03:23:47.147Z,95670.00
2018-12-01T03:24:24.936Z,95667.00
2018-12-01T03:25:02.833Z,95669.00
2018-12-01T03:25:40.688Z,95670.00
2018-12-01T03:26:18.807Z,95670.00
2018-12-01T03:26:56.756Z,95674.00
2018-12-01T03:27:34.583Z,95669.00
2018-12-01T03:28:12.266Z,95672.00
2018-12-01T03:28:50.186Z,95671.00
2018-12-01T03:29:27.955Z,95671.00
2018-12-01T03:30:05.621Z,95669.00
2018-12-01T03:30:43.626Z,95669.00
2018-12-01T03:31:21.281Z,95669.00
2018-12-01T03:31:59.117Z,95678.00
2018-12-01T03:32:36.640Z,95676.00
2018-12-01T03:33:14.403Z,95679.00
2018-12-01T03:33:52.420Z,95677.00
2018-12-01T03:34:30.084Z,95677.00
2018-12-01T03:35:07.915Z,95678.00
2018-12-01T03:35:45.674Z,95681.00
2018-12-01T03:36:23.669Z,95676.00
2018-12-01T03:37:01.491Z,95682.00
2018-12-01T03:37:39.333Z,95679.00
2018-12-01T03:38:17.142Z,95681.00
2018-12-01T03:38:55.228Z,95677.00
2018-12-01T03:39:33.135Z,95680.00
2018-12-01T03:40:10.923Z,95678.00
2018-12-01T03:40:48.783Z,95681.00
2018-12-01T03:41:26.612Z,95681.00
2018-12-01T03:42:04.584Z,95686.00
2018-12-01T03:42:42.432Z,95684.00
2018-12-01T03:43:20.052Z,95681.00
2018-12-01T03:43:57.991Z,95683.00
2018-12-01T03:44:35.713Z,95686.00
2018-12-01T03:45:13.572Z,95686.00
2018-12-01T03:45:51.261Z,95689.00
2018-12-01T03:46:29.082Z,95689.00
2018-12-01T03:47:06.743Z,95690.00
2018-12-01T03:47:44.327Z,95693.00
2018-12-01T03:48:22.044Z,95695.00
2018-12-01T03:48:59.712Z,95693.00
2018-12-01T03:49:37.475Z,95688.00
2018-12-01T03:50:15.648Z,95687.00
2018-12-01T03:50:53.450Z,95688.00
2018-12-01T03:51:31.072Z,95692.00
2018-12-01T03:52:08.734Z,95694.00
2018-12-01T03:52:46.436Z,95694.00
2018-12-01T03:53:24.257Z,95692.00
2018-12-01T03:54:02.099Z,95697.00
2018-12-01T03:54:39.957Z,95692.00
2018-12-01T03:55:17.676Z,95692.00
2018-12-01T03:55:55.277Z,95696.00
2018-12-01T03:56:33.191Z,95691.00
2018-12-01T03:57:11.029Z,95689.00
2018-12-01T03:57:49.039Z,95691.00
2018-12-01T03:58:26.836Z,95692.00
2018-12-01T03:59:04.688Z,95693.00
2018-12-01T03:59:42.459Z,95689.00
2018-12-01T04:00:20.185Z,95692.00
2018-12-01T04:00:57.919Z,95693.00
2018-12-01T04:01:35.768Z,95689.00
2018-12-01T04:02:13.519Z,95690.00
2018-12-01T04:02:51.195Z,95694.00
2018-12-01T04:03:28.884Z,95691.00
2018-12-01T04:04:06.541Z,95694.00
2018-12-01T04:04:44.227Z,95689.00
2018-12-01T04:05:21.977Z,95692.00
2018-12-01T04:05:59.526Z,95693.00
2018-12-01T04:06:37.097Z,95690.00
2018-12-01T04:07:14.860Z,95694.00
2018-12-01T04:07:52.566Z,95695.00
2018-12-01T04:08:30.437Z,95695.00
2018-12-01T04:09:08.556Z,95695.00
2018-12-01T04:09:46.196Z,95697.00
2018-12-01T04:10:23.941Z,95698.00
2018-12-01T04:11:01.837Z,95693.00
2018-12-01T04:11:39.731Z,95693.00
2018-12-01T04:12:17.761Z,95698.00
2018-12-01T04:12:55.618Z,95700.00
2018-12-01T04:13:33.746Z,95698.00
2018-12-01T04:14:11.395Z,95697.00
2018-12-01T04:14:49.216Z,95696.00
2018-12-01T04:15:27.100Z,95700.00
2018-12-01T04:16:04.795Z,95698.00
2018-12-01T04:16:42.608Z,95698.00
2018-12-01T04:17:20.418Z,95694.00
2018-12-01T04:17:58.286Z,95695.00
2018-12-01T04:18:35.815Z,95693.00
2018-12-01T04:19:13.523Z,95698.00
2018-12-01T04:19:51.340Z,95692.00
2018-12-01T04:20:29.132Z,95701.00
2018-12-01T04:21:06.826Z,95696.00
2018-12-01T04:21:44.675Z,95701.00
2018-12-01T04:22:22.506Z,95701.00
2018-12-01T04:23:00.335Z,95703.00
2018-12-01T04:23:38.425Z,95707.00
2018-12-01T04:24:16.138Z,95704.00
2018-12-01T04:24:53.980Z,95707.00
2018-12-01T04:25:31.899Z,95708.00
2018-12-01T04:26:09.503Z,95707.00
2018-12-01T04:26:47.227Z,95706.00
2018-12-01T04:27:25.264Z,95705.00
2018-12-01T04:28:02.946Z,95713.00
2018-12-01T04:28:40.877Z,95711.00
2018-12-01T04:29:18.796Z,95711.00
2018-12-01T04:29:56.493Z,95709.00
2018-12-01T04:30:34.625Z,95713.00
2018-12-01T04:31:12.627Z,95715.00
2018-12-01T04:31:50.158Z,95714.00
2018-12-01T04:32:28.248Z,95714.00
2018-12-01T04:33:06.024Z,95712.00
2018-12-01T04:33:43.843Z,95715.00
2018-12-01T04:34:21.417Z,95712.00
2018-12-01T04:34:59.333Z,95712.00
2018-12-01T04:35:37.106Z,95714.00
2018-12-01T04:36:14.766Z,95717.00
2018-12-01T04:36:52.385Z,95714.00
2018-12-01T04:37:30.025Z,95715.00
2018-12-01T04:38:07.915Z,95721.00
2018-12-01T04:38:45.516Z,95717.00
2018-12-01T04:39:23.286Z,95718.00
2018-12-01T04:40:01.069Z,95720.00
2018-12-01T04:40:38.822Z,95720.00
2018-12-01T04:41:16.557Z,95719.00
2018-12-01T04:41:54.356Z,95724.00
2018-12-01T04:42:31.892Z,95723.00
2018-12-01T04:43:09.584Z,95724.00
2018-12-01T04:43:47.339Z,95725.00
2018-12-01T04:44:25.496Z,95725.00
2018-12-01T04:45:03.285Z,95727.00
2018-12-01T04:45:41.140Z,95727.00
2018-12-01T04:46:19.276Z,95724.00
2018-12-01T04:46:57.011Z,95726.00
2018-12-01T04:47:34.955Z,95726.00
2018-12-01T04:48:12.781Z,95726.00
2018-12-01T04:48:50.660Z,95730.00
2018-12-01T04:49:28.506Z,95733.00
2018-12-01T04:50:06.194Z,95732.00
2018-12-01T04:50:44.385Z,95721.00
2018-12-01T04:51:22.343Z,95730.00
2018-12-01T04:51:59.907Z,95728.00
2018-12-01T04:52:37.708Z,95730.00
2018-12-01T04:53:15.494Z,95735.00
2018-12-01T04:53:53.898Z,95734.00
2018-12-01T04:54:31.429Z,95735.00
2018-12-01T04:55:08.978Z,95732.00
2018-12-01T04:55:48.210Z,95733.00
2018-12-01T04:56:25.864Z,95736.00
2018-12-01T04:57:03.586Z,95739.00
2018-12-01T04:57:41.603Z,95736.00
2018-12-01T04:58:20.021Z,95734.00
2018-12-01T04:58:58.088Z,95734.00
2018-12-01T04:59:35.805Z,95738.00
2018-12-01T05:00:16.597Z,95735.00
2018-12-01T05:00:54.237Z,95737.00
2018-12-01T05:01:31.912Z,95732.00
2018-12-01T05:02:10.026Z,95736.00
2018-12-01T05:02:47.883Z,95733.00
2018-12-01T05:03:25.705Z,95736.00
2018-12-01T05:04:03.413Z,95738.00
2018-12-01T05:04:41.296Z,95734.00
2018-12-01T05:05:19.089Z,95734.00
2018-12-01T05:05:57.052Z,95736.00
2018-12-01T05:06:34.916Z,95732.00
2018-12-01T05:07:12.804Z,95733.00
2018-12-01T05:07:50.493Z,95731.00
2018-12-01T05:08:28.296Z,95733.00
2018-12-01T05:09:06.139Z,95735.00
2018-12-01T05:09:43.869Z,95734.00
2018-12-01T05:10:22.681Z,95733.00
2018-12-01T05:11:00.785Z,95736.00
2018-12-01T05:11:38.811Z,95733.00
2018-12-01T05:12:16.483Z,95733.00
2018-12-01T05:12:54.342Z,95734.00
2018-12-01T05:13:32.226Z,95734.00
2018-12-01T05:14:11.022Z,95736.00
2018-12-01T05:14:48.727Z,95735.00
2018-12-01T05:15:26.829Z,95735.00
2018-12-01T05:16:04.445Z,95733.00
2018-12-01T05:16:42.058Z,95730.00
2018-12-01T05:17:19.675Z,95729.00
2018-12-01T05:17:57.465Z,95726.00
2018-12-01T05:18:35.324Z,95728.00
2018-12-01T05:19:12.911Z,95732.00
2018-12-01T05:19:50.884Z,95734.00
2018-12-01T05:20:29.003Z,95728.00
2018-12-01T05:21:06.960Z,95731.00
2018-12-01T05:21:44.886Z,95731.00
2018-12-01T05:22:22.809Z,95732.00
2018-12-01T05:23:00.549Z,95731.00
2018-12-01T05:23:38.415Z,95736.00
2018-12-01T05:24:15.966Z,95734.00
2018-12-01T05:24:53.830Z,95735.00
2018-12-01T05:25:31.386Z,95735.00
2018-12-01T05:26:09.225Z,95731.00
2018-12-01T05:26:46.979Z,95731.00
2018-12-01T05:27:24.666Z,95734.00
2018-12-01T05:28:02.467Z,95734.00
2018-12-01T05:28:40.420Z,95733.00
2018-12-01T05:29:18.375Z,95731.00
2018-12-01T05:29:56.812Z,95730.00
2018-12-01T05:30:34.467Z,95728.00
2018-12-01T05:31:12.314Z,95729.00
2018-12-01T05:31:50.128Z,95731.00
2018-12-01T05:32:27.596Z,95730.00
2018-12-01T05:33:05.547Z,95730.00
2018-12-01T05:33:43.395Z,95731.00
2018-12-01T05:34:21.266Z,95732.00
2018-12-01T05:34:59.207Z,95727.00
2018-12-01T05:35:37.356Z,95730.00
2018-12-01T05:36:15.229Z,95734.00
2018-12-01T05:36:53.017Z,95738.00
2018-12-01T05:37:30.900Z,95734.00
2018-12-01T05:38:08.420Z,95735.00
2018-12-01T05:38:46.338Z,95737.00
2018-12-01T05:39:24.128Z,95732.00
2018-12-01T05:40:02.928Z,95738.00
2018-12-01T05:40:40.848Z,95738.00
2018-12-01T05:41:18.410Z,95739.00
2018-12-01T05:41:56.149Z,95737.00
2018-12-01T05:42:33.820Z,95735.00
2018-12-01T05:43:11.778Z,95736.00
2018-12-01T05:43:49.802Z,95736.00
2018-12-01T05:44:27.587Z,95745.00
2018-12-01T05:45:05.288Z,95739.00
2018-12-01T05:45:43.042Z,95737.00
2018-12-01T05:46:20.922Z,95735.00
2018-12-01T05:46:58.765Z,95740.00
2018-12-01T05:47:36.687Z,95740.00
2018-12-01T05:48:14.523Z,95740.00
2018-12-01T05:48:52.421Z,95741.00
2018-12-01T05:49:30.510Z,95740.00
2018-12-01T05:50:08.263Z,95741.00
2018-12-01T05:50:46.152Z,95738.00
2018-12-01T05:51:24.302Z,95741.00
2018-12-01T05:52:02.329Z,95741.00
2018-12-01T05:52:39.884Z,95745.00
2018-12-01T05:54:00.313Z,95743.00
2018-12-01T05:54:38.096Z,95745.00
2018-12-01T05:55:15.796Z,95742.00
2018-12-01T05:55:53.428Z,95746.00
2018-12-01T05:56:31.079Z,95743.00
2018-12-01T05:57:09.047Z,95748.00
2018-12-01T05:57:46.752Z,95749.00
2018-12-01T05:58:24.614Z,95744.00
2018-12-01T05:59:02.294Z,95748.00
2018-12-01T05:59:40.004Z,95749.00
2018-12-01T06:00:17.768Z,95749.00
2018-12-01T06:00:55.431Z,95747.00
2018-12-01T06:01:33.151Z,95747.00
2018-12-01T06:02:11.015Z,95748.00
2018-12-01T06:02:48.797Z,95749.00
2018-12-01T06:03:26.715Z,95750.00
2018-12-01T06:04:04.621Z,95751.00
2018-12-01T06:04:42.291Z,95751.00
2018-12-01T06:05:20.008Z,95746.00
2018-12-01T06:05:57.736Z,95748.00
2018-12-01T06:06:35.632Z,95748.00
2018-12-01T06:07:13.382Z,95752.00
2018-12-01T06:07:51.321Z,95753.00
2018-12-01T06:08:29.221Z,95754.00
2018-12-01T06:09:07.149Z,95751.00
2018-12-01T06:09:44.959Z,95759.00
2018-12-01T06:10:22.783Z,95756.00
2018-12-01T06:11:00.713Z,95753.00
2018-12-01T06:11:38.522Z,95757.00
2018-12-01T06:12:16.223Z,95759.00
2018-12-01T06:12:54.102Z,95758.00
2018-12-01T06:13:31.621Z,95756.00
2018-12-01T06:14:09.305Z,95757.00
2018-12-01T06:14:47.533Z,95752.00
2018-12-01T06:15:25.293Z,95755.00
2018-12-01T06:16:03.200Z,95752.00
2018-12-01T06:16:41.120Z,95756.00
2018-12-01T06:17:18.814Z,95756.00
2018-12-01T06:17:56.545Z,95753.00
2018-12-01T06:18:34.273Z,95751.00
2018-12-01T06:19:12.045Z,95753.00
2018-12-01T06:19:49.925Z,95754.00
2018-12-01T06:20:28.245Z,95752.00
2018-12-01T06:21:06.089Z,95747.00
2018-12-01T06:21:43.738Z,95753.00
2018-12-01T06:22:21.403Z,95752.00
2018-12-01T06:22:59.378Z,95752.00
2018-12-01T06:23:37.086Z,95752.00
2018-12-01T06:24:14.996Z,95754.00
2018-12-01T06:24:52.733Z,95757.00
2018-12-01T06:25:30.569Z,95759.00
2018-12-01T06:26:08.227Z,95757.00
2018-12-01T06:26:46.148Z,95757.00
2018-12-01T06:27:23.994Z,95757.00
2018-12-01T06:28:01.570Z,95759.00
2018-12-01T06:28:39.283Z,95756.00
2018-12-01T06:29:16.874Z,95759.00
2018-12-01T06:29:54.555Z,95757.00
2018-12-01T06:30:32.313Z,95762.00
2018-12-01T06:31:09.996Z,95767.00
2018-12-01T06:31:47.894Z,95762.00
2018-12-01T06:32:25.626Z,95764.00
2018-12-01T06:33:03.536Z,95767.00
2018-12-01T06:33:41.139Z,95764.00
2018-12-01T06:34:19.064Z,95765.00
2018-12-01T06:34:56.990Z,95764.00
2018-12-01T06:35:34.965Z,95766.00
2018-12-01T06:36:12.589Z,95763.00
2018-12-01T06:36:50.273Z,95766.00
2018-12-01T06:37:27.957Z,95765.00
2018-12-01T06:38:05.775Z,95765.00
2018-12-01T06:38:43.396Z,95765.00
2018-12-01T06:39:21.132Z,95767.00
2018-12-01T06:39:59.000Z,95764.00
2018-12-01T06:40:36.894Z,95764.00
2018-12-01T06:41:14.907Z,95765.00
2018-12-01T06:41:52.494Z,95766.00
2018-12-01T06:42:30.086Z,95770.00
2018-12-01T06:43:07.766Z,95766.00
2018-12-01T06:43:45.525Z,95769.00
2018-12-01T06:44:23.235Z,95766.00
2018-12-01T06:45:00.748Z,95773.00
2018-12-01T06:45:38.666Z,95768.00
2018-12-01T06:46:16.528Z,95773.00
2018-12-01T06:46:54.614Z,95775.00
2018-12-01T06:47:32.475Z,95771.00
2018-12-01T06:48:10.390Z,95773.00
2018-12-01T06:48:48.167Z,95772.00
2018-12-01T06:49:25.686Z,95775.00
2018-12-01T06:50:03.386Z,95776.00
2018-12-01T06:50:41.487Z,95784.00
2018-12-01T06:51:19.169Z,95780.00
2018-12-01T06:51:56.831Z,95787.00
2018-12-01T06:52:34.453Z,95786.00
2018-12-01T06:53:12.238Z,95787.00
2018-12-01T06:53:50.072Z,95787.00
2018-12-01T06:54:27.989Z,95789.00
2018-12-01T06:55:05.767Z,95790.00
2018-12-01T06:55:43.471Z,95787.00
2018-12-01T06:56:21.288Z,95794.00
2018-12-01T06:56:59.410Z,95794.00
2018-12-01T06:57:36.937Z,95792.00
2018-12-01T06:58:14.707Z,95793.00
2018-12-01T06:58:52.397Z,95798.00
2018-12-01T06:59:30.209Z,95799.00
2018-12-01T07:00:08.168Z,95799.00
2018-12-01T07:00:46.059Z,95798.00
2018-12-01T07:01:23.670Z,95800.00
2018-12-01T07:02:01.719Z,95806.00
2018-12-01T07:02:39.733Z,95807.00
2018-12-01T07:03:17.758Z,95807.00
2018-12-01T07:03:55.844Z,95803.00
2018-12-01T07:04:33.708Z,95807.00
2018-12-01T07:05:11.374Z,95810.00
2018-12-01T07:05:49.069Z,95807.00
2018-12-01T07:06:26.840Z,95806.00
2018-12-01T07:07:04.791Z,95807.00
2018-12-01T07:07:42.815Z,95808.00
2018-12-01T07:08:20.316Z,95808.00
2018-12-01T07:08:57.920Z,95805.00
2018-12-01T07:09:35.783Z,95806.00
2018-12-01T07:10:14.069Z,95812.00
2018-12-01T07:10:51.759Z,95810.00
2018-12-01T07:11:29.820Z,95812.00
2018-12-01T07:12:07.428Z,95812.00
2018-12-01T07:12:45.002Z,95809.00
2018-12-01T07:13:22.899Z,95813.00
2018-12-01T07:14:00.499Z,95809.00
2018-12-01T07:14:38.060Z,95810.00
2018-12-01T07:15:15.874Z,95814.00
2018-12-01T07:15:53.829Z,95811.00
2018-12-01T07:16:32.232Z,95813.00
2018-12-01T07:17:10.093Z,95820.00
2018-12-01T07:17:47.721Z,95817.00
2018-12-01T07:18:25.880Z,95819.00
2018-12-01T07:19:03.798Z,95815.00
2018-12-01T07:19:41.493Z,95817.00
2018-12-01T07:20:19.469Z,95815.00
2018-12-01T07:20:57.168Z,95816.00
2018-12-01T07:21:35.050Z,95816.00
2018-12-01T07:22:12.799Z,95817.00
2018-12-01T07:22:50.923Z,95815.00
2018-12-01T07:23:28.614Z,95817.00
2018-12-01T07:24:06.429Z,95817.00
2018-12-01T07:24:44.060Z,95821.00
2018-12-01T07:25:22.055Z,95820.00